createdAt,value
2023-02-01T00:00:01.081Z,1016.68
2023-02-01T00:10:01.285Z,1016.93
2023-02-01T00:20:01.100Z,1016.65
2023-02-01T00:30:01.075Z,1016.61
2023-02-01T00:40:01.301Z,1016.55
2023-02-01T00:50:01.921Z,1016.71
2023-02-01T01:00:01.452Z,1016.85
2023-02-01T01:10:01.031Z,1016.86
2023-02-01T01:20:01.010Z,1016.91
2023-02-01T01:30:01.090Z,1016.57
2023-02-01T01:40:00.995Z,1016.44
2023-02-01T01:50:01.574Z,1016.30
2023-02-01T02:00:02.438Z,1016.20
2023-02-01T02:10:01.720Z,1016.43
2023-02-01T02:20:01.037Z,1016.27
2023-02-01T02:30:01.127Z,1016.74
2023-02-01T02:40:01.472Z,1016.28
2023-02-01T02:50:01.322Z,1016.17
2023-02-01T03:00:01.057Z,1016.17
2023-02-01T03:10:00.972Z,1016.15
2023-02-01T03:20:01.959Z,1015.91
2023-02-01T03:30:01.064Z,1015.74
2023-02-01T03:40:00.205Z,1015.45
2023-02-01T03:50:01.306Z,1015.62
2023-02-01T04:00:01.047Z,1015.47
2023-02-01T04:10:00.999Z,1015.50
2023-02-01T04:20:01.046Z,1015.46
2023-02-01T04:30:01.021Z,1015.48
2023-02-01T04:40:01.679Z,1015.51
2023-02-01T04:50:01.148Z,1015.40
2023-02-01T05:00:01.223Z,1015.30
2023-02-01T05:10:02.921Z,1015.14
2023-02-01T05:20:01.549Z,1015.00
2023-02-01T05:30:01.269Z,1014.94
2023-02-01T05:40:01.011Z,1015.05
2023-02-01T05:50:01.079Z,1014.92
2023-02-01T06:00:01.087Z,1014.74
2023-02-01T06:10:00.999Z,1014.67
2023-02-01T06:20:01.287Z,1014.78
2023-02-01T06:30:01.274Z,1014.90
2023-02-01T06:40:01.068Z,1014.80
2023-02-01T06:50:01.020Z,1014.73
2023-02-01T07:00:01.018Z,1014.58
2023-02-01T07:10:01.094Z,1014.39
2023-02-01T07:20:01.583Z,1014.29
2023-02-01T07:30:01.298Z,1014.30
2023-02-01T07:40:01.124Z,1014.09
2023-02-01T07:50:01.106Z,1014.32
2023-02-01T08:00:01.340Z,1014.60
2023-02-01T08:10:01.349Z,1014.72
2023-02-01T08:20:01.036Z,1014.88
2023-02-01T08:30:01.372Z,1014.74
2023-02-01T08:40:01.460Z,1014.72
2023-02-01T08:50:01.268Z,1014.89
2023-02-01T09:00:01.472Z,1015.00
2023-02-01T09:10:01.334Z,1015.13
2023-02-01T09:20:01.278Z,1015.15
2023-02-01T09:30:01.694Z,1015.26
2023-02-01T09:40:01.484Z,1015.38
2023-02-01T09:50:00.300Z,1015.49
2023-02-01T10:00:01.275Z,1015.44
2023-02-01T10:10:01.133Z,1015.50
2023-02-01T10:20:01.054Z,1015.75
2023-02-01T10:30:00.976Z,1015.56
2023-02-01T10:40:01.212Z,1015.55
2023-02-01T10:50:00.276Z,1015.99
2023-02-01T11:00:02.780Z,1015.66
2023-02-01T11:10:01.340Z,1015.66
2023-02-01T11:20:01.023Z,1015.56
2023-02-01T11:30:01.012Z,1015.36
2023-02-01T11:40:01.527Z,1014.81
2023-02-01T11:50:01.047Z,1014.60
2023-02-01T12:00:00.210Z,1014.46
2023-02-01T12:10:01.038Z,1014.40
2023-02-01T12:20:01.300Z,1014.20
2023-02-01T12:30:01.149Z,1014.11
2023-02-01T12:40:00.239Z,1013.98
2023-02-01T12:50:01.592Z,1013.53
2023-02-01T13:00:01.065Z,1013.53
2023-02-01T13:10:01.051Z,1013.33
2023-02-01T13:20:02.417Z,1013.81
2023-02-01T13:30:01.568Z,1013.72
2023-02-01T13:40:02.218Z,1013.56
2023-02-01T13:50:01.072Z,1013.20
2023-02-01T14:00:01.059Z,1013.09
2023-02-01T14:10:00.838Z,1012.97
2023-02-01T14:20:01.002Z,1013.13
2023-02-01T14:30:01.079Z,1013.03
2023-02-01T14:40:01.000Z,1012.66
2023-02-01T14:50:01.027Z,1012.56
2023-02-01T15:00:01.314Z,1012.26
2023-02-01T15:10:01.068Z,1012.77
2023-02-01T15:20:02.429Z,1012.64
2023-02-01T15:30:01.544Z,1012.84
2023-02-01T15:40:01.343Z,1013.16
2023-02-01T15:50:01.023Z,1013.24
2023-02-01T16:00:01.237Z,1013.35
2023-02-01T16:10:00.236Z,1013.87
2023-02-01T16:20:01.009Z,1013.84
2023-02-01T16:30:01.077Z,1013.75
2023-02-01T16:40:01.479Z,1013.74
2023-02-01T16:50:06.212Z,1013.89
2023-02-01T17:00:01.540Z,1014.44
2023-02-01T17:10:00.253Z,1014.02
2023-02-01T17:20:01.140Z,1014.08
2023-02-01T17:30:01.330Z,1013.98
2023-02-01T17:40:01.156Z,1014.00
2023-02-01T17:50:02.584Z,1013.97
2023-02-01T18:00:03.273Z,1014.10
2023-02-01T18:10:01.484Z,1014.10
2023-02-01T18:20:00.993Z,1014.20
2023-02-01T18:30:01.430Z,1014.23
2023-02-01T18:40:01.213Z,1014.60
2023-02-01T18:50:02.203Z,1014.19
2023-02-01T19:00:01.517Z,1014.23
2023-02-01T19:10:01.042Z,1014.32
2023-02-01T19:20:01.884Z,1014.36
2023-02-01T19:30:01.332Z,1014.56
2023-02-01T19:40:01.953Z,1014.50
2023-02-01T19:50:02.262Z,1014.54
2023-02-01T20:00:03.592Z,1014.40
2023-02-01T20:09:59.387Z,1014.15
2023-02-01T20:20:00.394Z,1014.30
2023-02-01T20:30:01.092Z,1014.42
2023-02-01T20:40:03.770Z,1014.51
2023-02-01T20:50:01.137Z,1014.36
2023-02-01T21:00:01.315Z,1014.28
2023-02-01T21:10:02.175Z,1014.36
2023-02-01T21:20:02.173Z,1014.48
2023-02-01T21:30:01.016Z,1014.37
2023-02-01T21:40:01.519Z,1014.49
2023-02-01T21:50:02.201Z,1014.60
2023-02-01T22:00:01.821Z,1014.46
2023-02-01T22:10:01.045Z,1014.50
2023-02-01T22:20:01.089Z,1014.48
2023-02-01T22:30:01.090Z,1014.49
2023-02-01T22:40:01.124Z,1014.60
2023-02-01T22:50:01.140Z,1014.52
2023-02-01T23:00:02.129Z,1014.39
2023-02-01T23:10:01.069Z,1014.28
2023-02-01T23:20:01.487Z,1014.09
2023-02-01T23:30:01.300Z,1013.92
2023-02-01T23:40:01.078Z,1013.91
2023-02-01T23:50:01.228Z,1013.75
